sensor_id;sensor_type;location;lat;lon;timestamp;pressure;altitude;pressure_sealevel;temperature;humidity
76603;BME280;65075;48.390;17.598;2023-04-01T00:00:58;98298.25;;;13.19;57.62
76603;BME280;65075;48.390;17.598;2023-04-01T00:03:25;98291.91;;;12.18;62.36
76603;BME280;65075;48.390;17.598;2023-04-01T00:05:53;98295.94;;;13.52;58.11
76603;BME280;65075;48.390;17.598;2023-04-01T00:08:18;98288.72;;;12.77;59.96
76603;BME280;65075;48.390;17.598;2023-04-01T00:10:44;98290.78;;;12.41;61.88
76603;BME280;65075;48.390;17.598;2023-04-01T00:13:13;98285.63;;;11.95;62.69
76603;BME280;65075;48.390;17.598;2023-04-01T00:15:39;98260.03;;;11.55;64.34
76603;BME280;65075;48.390;17.598;2023-04-01T00:18:05;98299.03;;;10.93;67.00
76603;BME280;65075;48.390;17.598;2023-04-01T00:20:31;98293.84;;;12.70;61.56
76603;BME280;65075;48.390;17.598;2023-04-01T00:22:57;98300.88;;;12.10;62.71
76603;BME280;65075;48.390;17.598;2023-04-01T00:25:23;98255.84;;;11.71;64.26
76603;BME280;65075;48.390;17.598;2023-04-01T00:27:49;98303.78;;;12.97;60.65
76603;BME280;65075;48.390;17.598;2023-04-01T00:30:15;98315.03;;;11.62;65.19
76603;BME280;65075;48.390;17.598;2023-04-01T00:32:41;98305.25;;;12.19;64.08
76603;BME280;65075;48.390;17.598;2023-04-01T00:35:08;98305.94;;;11.53;65.45
76603;BME280;65075;48.390;17.598;2023-04-01T00:37:37;98309.44;;;12.17;63.76
76603;BME280;65075;48.390;17.598;2023-04-01T00:40:04;98310.91;;;11.78;63.69
76603;BME280;65075;48.390;17.598;2023-04-01T00:42:30;98295.50;;;12.49;62.09
76603;BME280;65075;48.390;17.598;2023-04-01T00:44:56;98303.25;;;11.26;66.35
76603;BME280;65075;48.390;17.598;2023-04-01T00:47:24;98262.28;;;10.44;66.73
76603;BME280;65075;48.390;17.598;2023-04-01T00:49:53;98321.84;;;11.78;63.71
76603;BME280;65075;48.390;17.598;2023-04-01T00:52:25;98282.81;;;10.69;65.86
76603;BME280;65075;48.390;17.598;2023-04-01T00:54:57;98311.13;;;10.73;67.08
76603;BME280;65075;48.390;17.598;2023-04-01T00:57:35;98313.75;;;11.19;66.06
76603;BME280;65075;48.390;17.598;2023-04-01T01:00:06;98306.47;;;11.28;64.26
76603;BME280;65075;48.390;17.598;2023-04-01T01:02:34;98291.50;;;11.39;63.20
76603;BME280;65075;48.390;17.598;2023-04-01T01:05:01;98308.41;;;11.90;61.48
76603;BME280;65075;48.390;17.598;2023-04-01T01:12:45;98294.25;;;11.88;61.01
76603;BME280;65075;48.390;17.598;2023-04-01T01:32:10;98298.94;;;13.25;56.35
76603;BME280;65075;48.390;17.598;2023-04-01T01:37:35;98285.25;;;11.25;61.66
76603;BME280;65075;48.390;17.598;2023-04-01T01:40:05;98268.34;;;11.36;59.62
76603;BME280;65075;48.390;17.598;2023-04-01T01:42:36;98286.69;;;12.30;56.93
76603;BME280;65075;48.390;17.598;2023-04-01T01:45:05;98285.28;;;11.74;59.04
76603;BME280;65075;48.390;17.598;2023-04-01T01:47:34;98273.25;;;11.62;59.02
76603;BME280;65075;48.390;17.598;2023-04-01T01:50:01;98252.00;;;12.17;56.77
76603;BME280;65075;48.390;17.598;2023-04-01T01:52:28;98267.72;;;12.95;55.25
76603;BME280;65075;48.390;17.598;2023-04-01T01:54:56;98274.03;;;13.60;52.57
76603;BME280;65075;48.390;17.598;2023-04-01T01:57:27;98225.56;;;12.65;54.16
76603;BME280;65075;48.390;17.598;2023-04-01T02:00:07;98277.28;;;14.05;51.04
76603;BME280;65075;48.390;17.598;2023-04-01T02:02:44;98282.22;;;14.72;49.90
76603;BME280;65075;48.390;17.598;2023-04-01T02:05:16;98264.38;;;13.97;51.32
76603;BME280;65075;48.390;17.598;2023-04-01T02:07:48;98266.94;;;14.11;50.66
76603;BME280;65075;48.390;17.598;2023-04-01T02:10:19;98258.91;;;13.80;51.70
76603;BME280;65075;48.390;17.598;2023-04-01T02:12:49;98260.34;;;13.69;52.51
76603;BME280;65075;48.390;17.598;2023-04-01T02:15:19;98248.22;;;14.21;49.77
76603;BME280;65075;48.390;17.598;2023-04-01T02:17:47;98257.97;;;15.50;47.52
76603;BME280;65075;48.390;17.598;2023-04-01T02:20:19;98254.16;;;14.58;49.60
76603;BME280;65075;48.390;17.598;2023-04-01T02:22:50;98255.78;;;14.42;49.67
76603;BME280;65075;48.390;17.598;2023-04-01T02:25:37;98233.16;;;15.29;47.42
76603;BME280;65075;48.390;17.598;2023-04-01T02:28:08;98251.28;;;14.46;49.49
76603;BME280;65075;48.390;17.598;2023-04-01T02:30:36;98207.25;;;14.08;49.82
76603;BME280;65075;48.390;17.598;2023-04-01T02:33:06;98248.75;;;14.06;49.95
76603;BME280;65075;48.390;17.598;2023-04-01T02:35:34;98255.50;;;13.66;51.43
76603;BME280;65075;48.390;17.598;2023-04-01T02:38:01;98241.44;;;13.42;51.81
76603;BME280;65075;48.390;17.598;2023-04-01T02:40:27;98231.63;;;12.93;53.46
76603;BME280;65075;48.390;17.598;2023-04-01T02:42:52;98237.28;;;12.96;53.21
76603;BME280;65075;48.390;17.598;2023-04-01T02:45:18;98225.19;;;13.97;51.00
76603;BME280;65075;48.390;17.598;2023-04-01T02:47:43;98222.81;;;13.04;53.42
76603;BME280;65075;48.390;17.598;2023-04-01T02:50:09;98255.53;;;12.70;54.17
76603;BME280;65075;48.390;17.598;2023-04-01T02:52:36;98222.28;;;13.76;51.33
76603;BME280;65075;48.390;17.598;2023-04-01T02:55:02;98236.00;;;13.76;51.43
76603;BME280;65075;48.390;17.598;2023-04-01T02:57:30;98232.28;;;13.55;51.44
76603;BME280;65075;48.390;17.598;2023-04-01T02:59:56;98261.28;;;13.47;50.99
76603;BME280;65075;48.390;17.598;2023-04-01T03:02:21;98266.75;;;14.24;49.54
76603;BME280;65075;48.390;17.598;2023-04-01T03:04:47;98267.94;;;13.07;52.94
76603;BME280;65075;48.390;17.598;2023-04-01T03:07:13;98267.09;;;13.63;51.80
76603;BME280;65075;48.390;17.598;2023-04-01T03:09:38;98269.66;;;14.54;48.80
76603;BME280;65075;48.390;17.598;2023-04-01T03:12:05;98278.56;;;14.16;49.88
76603;BME280;65075;48.390;17.598;2023-04-01T03:14:31;98272.38;;;12.94;53.09
76603;BME280;65075;48.390;17.598;2023-04-01T03:16:56;98262.75;;;13.62;51.32
76603;BME280;65075;48.390;17.598;2023-04-01T03:19:22;98268.38;;;13.57;51.41
76603;BME280;65075;48.390;17.598;2023-04-01T03:21:47;98256.63;;;13.65;51.38
76603;BME280;65075;48.390;17.598;2023-04-01T03:24:13;98261.16;;;13.69;51.86
76603;BME280;65075;48.390;17.598;2023-04-01T03:26:38;98244.00;;;12.51;53.30
76603;BME280;65075;48.390;17.598;2023-04-01T03:29:04;98252.88;;;12.26;55.19
76603;BME280;65075;48.390;17.598;2023-04-01T03:31:31;98266.88;;;13.25;53.01
76603;BME280;65075;48.390;17.598;2023-04-01T03:33:56;98274.47;;;12.89;53.34
76603;BME280;65075;48.390;17.598;2023-04-01T03:36:22;98276.16;;;12.76;53.71
76603;BME280;65075;48.390;17.598;2023-04-01T03:38:48;98258.25;;;12.70;52.73
76603;BME280;65075;48.390;17.598;2023-04-01T03:41:15;98282.63;;;12.49;54.34
76603;BME280;65075;48.390;17.598;2023-04-01T03:43:41;98293.88;;;13.57;52.42
76603;BME280;65075;48.390;17.598;2023-04-01T03:46:07;98285.63;;;12.70;54.20
76603;BME280;65075;48.390;17.598;2023-04-01T03:48:32;98285.50;;;12.75;53.72
76603;BME280;65075;48.390;17.598;2023-04-01T03:50:58;98276.75;;;12.12;55.19
76603;BME280;65075;48.390;17.598;2023-04-01T03:53:24;98293.81;;;12.92;52.79
76603;BME280;65075;48.390;17.598;2023-04-01T03:55:50;98301.31;;;13.09;52.97
76603;BME280;65075;48.390;17.598;2023-04-01T03:58:16;98293.91;;;12.87;52.92
76603;BME280;65075;48.390;17.598;2023-04-01T04:00:42;98294.00;;;13.44;52.02
76603;BME280;65075;48.390;17.598;2023-04-01T04:03:08;98289.03;;;13.63;51.32
76603;BME280;65075;48.390;17.598;2023-04-01T04:05:33;98290.94;;;13.54;51.26
76603;BME280;65075;48.390;17.598;2023-04-01T04:08:00;98273.91;;;12.47;53.82
76603;BME280;65075;48.390;17.598;2023-04-01T04:10:26;98283.88;;;13.87;49.77
76603;BME280;65075;48.390;17.598;2023-04-01T04:12:52;98301.66;;;12.10;55.34
76603;BME280;65075;48.390;17.598;2023-04-01T04:15:18;98290.97;;;11.50;57.15
76603;BME280;65075;48.390;17.598;2023-04-01T04:17:45;98256.03;;;12.19;54.30
76603;BME280;65075;48.390;17.598;2023-04-01T04:20:10;98302.31;;;11.93;55.77
76603;BME280;65075;48.390;17.598;2023-04-01T04:22:36;98293.03;;;12.17;55.83
76603;BME280;65075;48.390;17.598;2023-04-01T04:25:02;98296.16;;;12.24;55.33
76603;BME280;65075;48.390;17.598;2023-04-01T04:27:28;98287.00;;;13.21;52.21
76603;BME280;65075;48.390;17.598;2023-04-01T04:29:53;98288.31;;;13.32;51.85
76603;BME280;65075;48.390;17.598;2023-04-01T04:32:19;98283.84;;;13.61;50.72
76603;BME280;65075;48.390;17.598;2023-04-01T04:34:45;98278.38;;;12.13;54.71
76603;BME280;65075;48.390;17.598;2023-04-01T04:37:10;98274.53;;;12.44;54.60
76603;BME280;65075;48.390;17.598;2023-04-01T04:39:36;98275.16;;;13.03;52.69
76603;BME280;65075;48.390;17.598;2023-04-01T04:42:01;98271.53;;;12.85;53.56
76603;BME280;65075;48.390;17.598;2023-04-01T04:44:30;98281.63;;;12.76;53.93
76603;BME280;65075;48.390;17.598;2023-04-01T04:46:55;98275.91;;;12.86;53.57
76603;BME280;65075;48.390;17.598;2023-04-01T04:49:21;98277.56;;;13.04;53.14
76603;BME280;65075;48.390;17.598;2023-04-01T04:51:46;98280.03;;;13.88;50.44
76603;BME280;65075;48.390;17.598;2023-04-01T04:54:15;98262.28;;;13.03;53.02
76603;BME280;65075;48.390;17.598;2023-04-01T04:56:48;98288.16;;;13.28;52.17
76603;BME280;65075;48.390;17.598;2023-04-01T04:59:13;98289.19;;;13.49;51.62
76603;BME280;65075;48.390;17.598;2023-04-01T05:01:39;98288.50;;;13.35;52.10
76603;BME280;65075;48.390;17.598;2023-04-01T05:04:05;98288.41;;;13.83;51.88
76603;BME280;65075;48.390;17.598;2023-04-01T05:06:31;98275.50;;;14.18;49.03
76603;BME280;65075;48.390;17.598;2023-04-01T05:08:57;98265.47;;;14.39;48.97
76603;BME280;65075;48.390;17.598;2023-04-01T05:11:23;98264.38;;;14.06;49.97
76603;BME280;65075;48.390;17.598;2023-04-01T05:13:49;98275.41;;;12.93;53.26
76603;BME280;65075;48.390;17.598;2023-04-01T05:16:18;98307.16;;;14.32;50.03
76603;BME280;65075;48.390;17.598;2023-04-01T05:18:44;98247.81;;;12.72;54.29
76603;BME280;65075;48.390;17.598;2023-04-01T05:21:12;98297.13;;;13.11;54.32
76603;BME280;65075;48.390;17.598;2023-04-01T05:23:38;98297.47;;;14.09;52.57
76603;BME280;65075;48.390;17.598;2023-04-01T05:26:10;98303.59;;;14.23;51.53
76603;BME280;65075;48.390;17.598;2023-04-01T05:28:36;98305.03;;;14.21;51.86
76603;BME280;65075;48.390;17.598;2023-04-01T05:31:04;98315.19;;;14.63;51.11
76603;BME280;65075;48.390;17.598;2023-04-01T05:33:31;98315.88;;;14.35;52.69
76603;BME280;65075;48.390;17.598;2023-04-01T05:36:11;98315.81;;;14.69;50.30
76603;BME280;65075;48.390;17.598;2023-04-01T05:38:37;98321.47;;;15.10;50.11
76603;BME280;65075;48.390;17.598;2023-04-01T05:41:03;98322.69;;;15.30;49.24
76603;BME280;65075;48.390;17.598;2023-04-01T05:43:29;98281.44;;;13.03;54.07
76603;BME280;65075;48.390;17.598;2023-04-01T05:45:56;98292.97;;;13.23;53.93
76603;BME280;65075;48.390;17.598;2023-04-01T05:48:21;98311.19;;;13.36;53.92
76603;BME280;65075;48.390;17.598;2023-04-01T05:50:47;98321.13;;;13.71;54.02
76603;BME280;65075;48.390;17.598;2023-04-01T05:53:12;98325.66;;;12.88;56.08
76603;BME280;65075;48.390;17.598;2023-04-01T05:55:38;98327.06;;;13.08;55.59
76603;BME280;65075;48.390;17.598;2023-04-01T05:58:06;98331.81;;;14.24;52.88
76603;BME280;65075;48.390;17.598;2023-04-01T06:00:34;98321.78;;;13.11;55.08
76603;BME280;65075;48.390;17.598;2023-04-01T06:03:00;98317.34;;;13.02;55.47
76603;BME280;65075;48.390;17.598;2023-04-01T06:05:33;98342.28;;;14.65;51.35
76603;BME280;65075;48.390;17.598;2023-04-01T06:08:10;98344.22;;;14.04;51.69
76603;BME280;65075;48.390;17.598;2023-04-01T06:10:58;98339.00;;;13.12;55.69
76603;BME280;65075;48.390;17.598;2023-04-01T06:19:40;98323.69;;;14.70;49.70
76603;BME280;65075;48.390;17.598;2023-04-01T06:27:16;98342.25;;;13.79;51.53
76603;BME280;65075;48.390;17.598;2023-04-01T06:32:51;98333.91;;;14.01;51.29
76603;BME280;65075;48.390;17.598;2023-04-01T06:35:45;98338.56;;;14.78;49.12
76603;BME280;65075;48.390;17.598;2023-04-01T06:43:50;98338.16;;;15.52;47.74
76603;BME280;65075;48.390;17.598;2023-04-01T06:46:38;98333.91;;;14.53;49.41
76603;BME280;65075;48.390;17.598;2023-04-01T06:51:59;98337.47;;;14.45;49.92
76603;BME280;65075;48.390;17.598;2023-04-01T06:54:34;98334.72;;;14.10;50.79
76603;BME280;65075;48.390;17.598;2023-04-01T06:57:20;98322.44;;;14.51;49.23
76603;BME280;65075;48.390;17.598;2023-04-01T06:59:48;98333.78;;;14.49;49.73
76603;BME280;65075;48.390;17.598;2023-04-01T07:02:28;98303.38;;;14.63;48.97
76603;BME280;65075;48.390;17.598;2023-04-01T07:04:58;98320.53;;;14.17;49.90
76603;BME280;65075;48.390;17.598;2023-04-01T07:07:45;98321.63;;;13.99;50.49
76603;BME280;65075;48.390;17.598;2023-04-01T07:13:00;98344.84;;;14.78;47.60
76603;BME280;65075;48.390;17.598;2023-04-01T07:15:36;98345.19;;;14.77;48.08
76603;BME280;65075;48.390;17.598;2023-04-01T07:18:16;98316.09;;;14.76;47.71
76603;BME280;65075;48.390;17.598;2023-04-01T07:20:44;98302.44;;;15.05;46.26
76603;BME280;65075;48.390;17.598;2023-04-01T07:23:40;98344.19;;;14.81;48.47
76603;BME280;65075;48.390;17.598;2023-04-01T07:26:19;98347.34;;;15.09;46.86
76603;BME280;65075;48.390;17.598;2023-04-01T07:28:46;98345.03;;;15.87;45.82
76603;BME280;65075;48.390;17.598;2023-04-01T07:43:39;98364.97;;;19.59;37.23
76603;BME280;65075;48.390;17.598;2023-04-01T07:46:31;98367.06;;;21.73;33.50
76603;BME280;65075;48.390;17.598;2023-04-01T07:49:15;98375.00;;;20.87;35.04
76603;BME280;65075;48.390;17.598;2023-04-01T07:52:12;98373.97;;;19.87;36.62
76603;BME280;65075;48.390;17.598;2023-04-01T07:57:27;98367.31;;;19.57;37.36
76603;BME280;65075;48.390;17.598;2023-04-01T08:00:10;98356.34;;;20.46;35.95
76603;BME280;65075;48.390;17.598;2023-04-01T08:08:18;98339.00;;;22.04;32.33
76603;BME280;65075;48.390;17.598;2023-04-01T08:11:06;98339.66;;;21.94;31.95
76603;BME280;65075;48.390;17.598;2023-04-01T08:22:27;98323.94;;;18.71;37.85
76603;BME280;65075;48.390;17.598;2023-04-01T08:24:58;98360.44;;;18.24;38.54
76603;BME280;65075;48.390;17.598;2023-04-01T08:27:37;98337.16;;;21.63;33.74
76603;BME280;65075;48.390;17.598;2023-04-01T08:32:48;98340.69;;;20.95;33.49
76603;BME280;65075;48.390;17.598;2023-04-01T08:38:06;98352.41;;;20.66;33.96
76603;BME280;65075;48.390;17.598;2023-04-01T08:48:59;98352.72;;;19.91;34.34
76603;BME280;65075;48.390;17.598;2023-04-01T08:56:43;98358.97;;;16.85;40.11
76603;BME280;65075;48.390;17.598;2023-04-01T09:02:21;98360.13;;;17.29;40.85
76603;BME280;65075;48.390;17.598;2023-04-01T09:16:23;98373.00;;;17.37;41.36
76603;BME280;65075;48.390;17.598;2023-04-01T09:21:42;98371.03;;;16.81;41.71
76603;BME280;65075;48.390;17.598;2023-04-01T09:24:37;98365.22;;;17.76;39.80
76603;BME280;65075;48.390;17.598;2023-04-01T09:32:56;98361.31;;;17.89;39.43
76603;BME280;65075;48.390;17.598;2023-04-01T09:35:45;98370.13;;;18.58;38.28
76603;BME280;65075;48.390;17.598;2023-04-01T09:41:30;98363.97;;;18.77;37.63
76603;BME280;65075;48.390;17.598;2023-04-01T09:52:37;98366.31;;;18.91;37.43
76603;BME280;65075;48.390;17.598;2023-04-01T10:13:30;98377.66;;;23.02;29.28
76603;BME280;65075;48.390;17.598;2023-04-01T10:21:47;98369.97;;;24.13;27.34
76603;BME280;65075;48.390;17.598;2023-04-01T10:24:33;98368.66;;;23.16;29.54
76603;BME280;65075;48.390;17.598;2023-04-01T10:30:42;98360.88;;;20.54;32.14
76603;BME280;65075;48.390;17.598;2023-04-01T10:44:03;98355.09;;;23.48;28.64
76603;BME280;65075;48.390;17.598;2023-04-01T10:47:16;98344.47;;;23.23;27.86
76603;BME280;65075;48.390;17.598;2023-04-01T11:07:00;98367.56;;;18.93;36.04
76603;BME280;65075;48.390;17.598;2023-04-01T11:12:45;98372.75;;;17.42;37.97
76603;BME280;65075;48.390;17.598;2023-04-01T11:24:16;98365.88;;;17.48;38.83
76603;BME280;65075;48.390;17.598;2023-04-01T11:29:22;98382.13;;;17.62;38.41
76603;BME280;65075;48.390;17.598;2023-04-01T11:31:56;98366.09;;;18.04;38.10
76603;BME280;65075;48.390;17.598;2023-04-01T11:34:47;98370.97;;;17.83;38.68
76603;BME280;65075;48.390;17.598;2023-04-01T11:43:27;98370.34;;;18.13;37.23
76603;BME280;65075;48.390;17.598;2023-04-01T11:46:12;98367.50;;;17.61;37.98
76603;BME280;65075;48.390;17.598;2023-04-01T11:55:15;98380.06;;;17.14;38.58
76603;BME280;65075;48.390;17.598;2023-04-01T11:57:56;98378.31;;;17.91;37.61
76603;BME280;65075;48.390;17.598;2023-04-01T12:11:52;98370.94;;;17.46;38.47
76603;BME280;65075;48.390;17.598;2023-04-01T12:14:34;98375.97;;;17.44;37.91
76603;BME280;65075;48.390;17.598;2023-04-01T12:17:29;98316.19;;;15.93;39.48
76603;BME280;65075;48.390;17.598;2023-04-01T12:20:21;98383.44;;;16.04;39.79
76603;BME280;65075;48.390;17.598;2023-04-01T12:28:25;98386.16;;;16.33;39.38
76603;BME280;65075;48.390;17.598;2023-04-01T12:31:15;98386.22;;;16.99;38.64
76603;BME280;65075;48.390;17.598;2023-04-01T12:50:50;98380.63;;;17.64;37.12
76603;BME280;65075;48.390;17.598;2023-04-01T13:11:02;98376.59;;;17.86;36.66
76603;BME280;65075;48.390;17.598;2023-04-01T13:19:07;98366.47;;;19.88;33.48
76603;BME280;65075;48.390;17.598;2023-04-01T13:32:56;98377.25;;;20.09;31.98
76603;BME280;65075;48.390;17.598;2023-04-01T13:38:39;98356.41;;;19.64;32.91
76603;BME280;65075;48.390;17.598;2023-04-01T13:44:13;98378.75;;;19.12;32.99
76603;BME280;65075;48.390;17.598;2023-04-01T13:55:18;98366.50;;;18.30;34.51
76603;BME280;65075;48.390;17.598;2023-04-01T14:03:26;98364.97;;;18.45;34.62
76603;BME280;65075;48.390;17.598;2023-04-01T14:14:21;98364.03;;;19.24;34.91
76603;BME280;65075;48.390;17.598;2023-04-01T14:17:12;98372.06;;;19.13;35.02
76603;BME280;65075;48.390;17.598;2023-04-01T14:25:45;98362.09;;;18.81;36.96
76603;BME280;65075;48.390;17.598;2023-04-01T14:28:41;98370.16;;;18.06;36.76
76603;BME280;65075;48.390;17.598;2023-04-01T14:31:27;98369.34;;;19.29;34.75
76603;BME280;65075;48.390;17.598;2023-04-01T14:48:15;98344.19;;;18.91;34.89
76603;BME280;65075;48.390;17.598;2023-04-01T14:50:53;98343.69;;;18.57;33.36
76603;BME280;65075;48.390;17.598;2023-04-01T14:55:56;98355.19;;;18.47;34.90
76603;BME280;65075;48.390;17.598;2023-04-01T14:58:27;98347.41;;;18.93;34.49
76603;BME280;65075;48.390;17.598;2023-04-01T15:17:47;98361.72;;;18.15;32.96
76603;BME280;65075;48.390;17.598;2023-04-01T15:20:38;98366.25;;;18.35;32.41
76603;BME280;65075;48.390;17.598;2023-04-01T15:23:24;98361.81;;;18.70;31.74
76603;BME280;65075;48.390;17.598;2023-04-01T15:26:11;98361.50;;;18.08;33.26
76603;BME280;65075;48.390;17.598;2023-04-01T15:31:32;98365.66;;;19.25;31.02
76603;BME280;65075;48.390;17.598;2023-04-01T15:37:02;98374.59;;;19.34;31.81
76603;BME280;65075;48.390;17.598;2023-04-01T15:50:21;98385.88;;;18.98;32.06
76603;BME280;65075;48.390;17.598;2023-04-01T16:10:21;98397.75;;;18.58;34.10
76603;BME280;65075;48.390;17.598;2023-04-01T16:21:00;98396.25;;;19.16;32.00
76603;BME280;65075;48.390;17.598;2023-04-01T16:23:47;98398.59;;;20.08;30.96
76603;BME280;65075;48.390;17.598;2023-04-01T16:29:03;98401.53;;;20.31;31.96
76603;BME280;65075;48.390;17.598;2023-04-01T16:34:30;98406.94;;;19.18;31.98
76603;BME280;65075;48.390;17.598;2023-04-01T16:37:09;98405.34;;;16.83;35.91
76603;BME280;65075;48.390;17.598;2023-04-01T16:42:50;98405.78;;;17.87;35.01
76603;BME280;65075;48.390;17.598;2023-04-01T16:45:37;98420.91;;;18.94;33.30
76603;BME280;65075;48.390;17.598;2023-04-01T16:48:12;98409.38;;;17.88;35.28
76603;BME280;65075;48.390;17.598;2023-04-01T16:50:51;98392.56;;;18.17;34.52
76603;BME280;65075;48.390;17.598;2023-04-01T16:56:07;98419.09;;;19.57;32.15
76603;BME280;65075;48.390;17.598;2023-04-01T17:01:16;98437.00;;;19.78;32.72
76603;BME280;65075;48.390;17.598;2023-04-01T17:03:51;98410.19;;;19.35;32.60
76603;BME280;65075;48.390;17.598;2023-04-01T17:06:24;98425.44;;;20.39;31.34
76603;BME280;65075;48.390;17.598;2023-04-01T17:14:50;98434.31;;;20.13;31.61
76603;BME280;65075;48.390;17.598;2023-04-01T17:23:19;98424.16;;;20.02;31.63
76603;BME280;65075;48.390;17.598;2023-04-01T17:36:00;98467.41;;;21.10;31.04
76603;BME280;65075;48.390;17.598;2023-04-01T17:42:04;98478.84;;;16.71;37.99
76603;BME280;65075;48.390;17.598;2023-04-01T17:45:01;98476.78;;;18.87;34.04
76603;BME280;65075;48.390;17.598;2023-04-01T17:50:16;98475.78;;;19.94;32.62
76603;BME280;65075;48.390;17.598;2023-04-01T18:07:16;98503.19;;;20.46;31.43
76603;BME280;65075;48.390;17.598;2023-04-01T18:15:35;98512.88;;;18.30;34.47
76603;BME280;65075;48.390;17.598;2023-04-01T18:23:30;98517.66;;;18.81;34.06
76603;BME280;65075;48.390;17.598;2023-04-01T18:34:53;98530.47;;;18.25;35.09
76603;BME280;65075;48.390;17.598;2023-04-01T18:40:13;98535.16;;;17.89;35.68
76603;BME280;65075;48.390;17.598;2023-04-01T18:45:33;98541.78;;;17.76;36.00
76603;BME280;65075;48.390;17.598;2023-04-01T18:51:16;98549.19;;;16.01;38.94
76603;BME280;65075;48.390;17.598;2023-04-01T18:56:47;98547.66;;;15.83;38.86
76603;BME280;65075;48.390;17.598;2023-04-01T18:59:38;98552.72;;;17.72;35.95
76603;BME280;65075;48.390;17.598;2023-04-01T19:02:14;98562.06;;;17.05;37.30
76603;BME280;65075;48.390;17.598;2023-04-01T19:04:50;98562.72;;;14.65;42.81
76603;BME280;65075;48.390;17.598;2023-04-01T19:07:41;98564.47;;;16.86;38.64
76603;BME280;65075;48.390;17.598;2023-04-01T19:13:14;98576.13;;;14.67;43.06
76603;BME280;65075;48.390;17.598;2023-04-01T19:18:44;98582.44;;;16.63;39.65
76603;BME280;65075;48.390;17.598;2023-04-01T19:24:41;98587.97;;;15.27;41.31
76603;BME280;65075;48.390;17.598;2023-04-01T19:30:24;98597.22;;;16.50;39.40
76603;BME280;65075;48.390;17.598;2023-04-01T19:36:00;98585.13;;;18.20;37.67
76603;BME280;65075;48.390;17.598;2023-04-01T19:38:38;98582.81;;;18.22;37.56
76603;BME280;65075;48.390;17.598;2023-04-01T19:41:27;98595.22;;;19.13;36.14
76603;BME280;65075;48.390;17.598;2023-04-01T19:46:44;98596.66;;;17.77;37.84
76603;BME280;65075;48.390;17.598;2023-04-01T19:54:56;98608.56;;;17.48;37.76
76603;BME280;65075;48.390;17.598;2023-04-01T19:57:30;98623.38;;;19.03;36.58
76603;BME280;65075;48.390;17.598;2023-04-01T20:00:25;98600.00;;;18.64;36.64
76603;BME280;65075;48.390;17.598;2023-04-01T20:03:25;98618.69;;;18.10;37.47
76603;BME280;65075;48.390;17.598;2023-04-01T20:25:23;98563.78;;;13.38;50.93
76603;BME280;65075;48.390;17.598;2023-04-01T20:28:01;98644.59;;;13.27;52.90
76603;BME280;65075;48.390;17.598;2023-04-01T20:30:43;98646.16;;;14.16;50.19
76603;BME280;65075;48.390;17.598;2023-04-01T20:36:45;98650.91;;;13.36;51.92
76603;BME280;65075;48.390;17.598;2023-04-01T20:40:44;98655.16;;;13.42;52.51
76603;BME280;65075;48.390;17.598;2023-04-01T20:42:52;98660.41;;;13.52;51.95
76603;BME280;65075;48.390;17.598;2023-04-01T20:45:37;98642.84;;;13.75;51.72
76603;BME280;65075;48.390;17.598;2023-04-01T20:51:26;98660.69;;;14.48;49.80
76603;BME280;65075;48.390;17.598;2023-04-01T20:56:36;98659.88;;;14.95;48.60
76603;BME280;65075;48.390;17.598;2023-04-01T21:10:17;98660.19;;;15.02;47.65
76603;BME280;65075;48.390;17.598;2023-04-01T21:15:50;98667.22;;;15.77;45.75
76603;BME280;65075;48.390;17.598;2023-04-01T21:18:35;98664.84;;;14.37;48.32
76603;BME280;65075;48.390;17.598;2023-04-01T21:35:25;98666.38;;;13.76;50.20
76603;BME280;65075;48.390;17.598;2023-04-01T21:38:35;98659.97;;;14.03;49.07
76603;BME280;65075;48.390;17.598;2023-04-01T21:47:08;98663.78;;;13.71;50.05
76603;BME280;65075;48.390;17.598;2023-04-01T21:50:35;98669.13;;;13.04;51.55
76603;BME280;65075;48.390;17.598;2023-04-01T21:53:09;98660.81;;;13.23;51.45
76603;BME280;65075;48.390;17.598;2023-04-01T21:55:52;98665.28;;;13.77;49.79
76603;BME280;65075;48.390;17.598;2023-04-01T22:06:44;98644.22;;;13.86;49.17
76603;BME280;65075;48.390;17.598;2023-04-01T22:09:32;98664.91;;;13.92;49.73
76603;BME280;65075;48.390;17.598;2023-04-01T22:12:26;98659.88;;;13.28;51.62
76603;BME280;65075;48.390;17.598;2023-04-01T22:17:56;98663.66;;;13.98;49.62
76603;BME280;65075;48.390;17.598;2023-04-01T22:20:52;98634.78;;;14.79;47.21
76603;BME280;65075;48.390;17.598;2023-04-01T22:28:32;98662.78;;;13.67;50.95
76603;BME280;65075;48.390;17.598;2023-04-01T22:31:03;98663.97;;;13.16;52.54
76603;BME280;65075;48.390;17.598;2023-04-01T22:33:38;98664.72;;;12.81;53.18
76603;BME280;65075;48.390;17.598;2023-04-01T22:49:57;98673.31;;;12.88;52.54
76603;BME280;65075;48.390;17.598;2023-04-01T22:52:33;98664.41;;;13.68;50.44
76603;BME280;65075;48.390;17.598;2023-04-01T22:55:34;98675.97;;;13.43;51.63
76603;BME280;65075;48.390;17.598;2023-04-01T22:58:05;98685.13;;;13.38;51.92
76603;BME280;65075;48.390;17.598;2023-04-01T23:00:42;98677.06;;;13.19;51.86
76603;BME280;65075;48.390;17.598;2023-04-01T23:03:29;98699.59;;;12.89;53.83
76603;BME280;65075;48.390;17.598;2023-04-01T23:05:59;98691.59;;;12.79;54.05
76603;BME280;65075;48.390;17.598;2023-04-01T23:11:15;98691.66;;;13.01;53.05
76603;BME280;65075;48.390;17.598;2023-04-01T23:14:00;98692.13;;;13.89;50.09
76603;BME280;65075;48.390;17.598;2023-04-01T23:16:38;98679.75;;;14.53;48.24
76603;BME280;65075;48.390;17.598;2023-04-01T23:22:09;98701.94;;;14.65;47.91
76603;BME280;65075;48.390;17.598;2023-04-01T23:33:23;98699.72;;;15.40;47.04
76603;BME280;65075;48.390;17.598;2023-04-01T23:35:55;98718.53;;;12.58;53.97
76603;BME280;65075;48.390;17.598;2023-04-01T23:38:24;98694.75;;;14.24;50.15